YWG weather

Winnipeg / James Armstrong Richardson International Airport
Winnipeg, Manitoba, Canada

Public forecast

Using degrees Celsius for public forecast. Weather courtesy of forecast.io.

Current aviation weather report (METAR) for Winnipeg / James Armstrong Richardson International Airport

Retrieved 2020/06/05 08:00 UTC (1 hour ago):

CYWG 050800Z 28007KT 15SM BKN019 10/09 A2980 RMK SC6 SLP095

Aviation forecast (TAF) for Winnipeg / James Armstrong Richardson International Airport

Retrieved 2020/06/05 06:42 UTC (2 hours ago):

TAF CYWG 050538Z 0506/0606 27008KT P6SM SCT230 FM050900 30008KT P6SM SCT012 BKN030 TEMPO 0512/0515 BKN012 OVC030 FM051500 31012G22KT P6SM BKN030 FM052000 32012G22KT P6SM BKN050 BECMG 0600/0602 02012KT FM060400 05008KT P6SM SKC RMK NXT FCST BY 051200Z